createdAt,value
2022-08-25T00:02:01.904Z,100432.59
2022-08-25T00:07:05.911Z,100402.19
2022-08-25T00:12:08.975Z,100427.53
2022-08-25T00:17:11.261Z,100390.94
2022-08-25T00:22:13.623Z,100414.75
2022-08-25T00:27:15.987Z,100428.81
2022-08-25T00:32:18.636Z,100415.75
2022-08-25T00:37:21.040Z,100377.66
2022-08-25T00:42:25.453Z,100384.38
2022-08-25T00:47:27.830Z,100381.00
2022-08-25T00:52:37.486Z,100341.69
2022-08-25T00:57:43.820Z,100393.47
2022-08-25T01:02:46.329Z,100346.19
2022-08-25T01:07:49.819Z,100419.72
2022-08-25T01:12:54.686Z,100429.44
2022-08-25T01:17:58.269Z,100405.97
2022-08-25T01:23:02.609Z,100372.78
2022-08-25T01:28:05.933Z,100433.19
2022-08-25T01:33:09.721Z,100378.22
2022-08-25T01:38:12.322Z,100360.75
2022-08-25T01:43:32.468Z,100413.13
2022-08-25T01:48:34.918Z,100395.84
2022-08-25T01:53:37.219Z,100411.63
2022-08-25T01:58:49.034Z,100430.09
2022-08-25T02:03:53.766Z,100387.31
2022-08-25T02:09:06.434Z,100439.81
2022-08-25T02:14:11.960Z,100436.47
2022-08-25T02:19:14.552Z,100415.44
2022-08-25T02:24:17.267Z,100406.75
2022-08-25T02:29:19.681Z,100442.66
2022-08-25T02:34:22.816Z,100394.53
2022-08-25T02:39:25.622Z,100363.94
2022-08-25T02:44:27.939Z,100415.56
2022-08-25T02:49:30.783Z,100364.88
2022-08-25T02:54:33.147Z,100361.41
2022-08-25T02:59:36.255Z,100413.97
2022-08-25T03:04:38.729Z,100408.69
2022-08-25T03:09:41.084Z,100413.06
2022-08-25T03:14:43.410Z,100420.97
2022-08-25T03:19:46.653Z,100389.44
2022-08-25T03:24:48.916Z,100392.06
2022-08-25T03:29:51.440Z,100382.41
2022-08-25T03:34:53.714Z,100410.38
2022-08-25T03:39:56.103Z,100370.91
2022-08-25T03:44:58.463Z,100328.91
2022-08-25T03:50:21.128Z,100386.50
2022-08-25T03:55:25.384Z,100381.00
2022-08-25T04:00:27.753Z,100404.44
2022-08-25T04:05:30.066Z,100378.00
2022-08-25T04:10:36.728Z,100384.84
2022-08-25T04:15:43.310Z,100354.81
2022-08-25T04:20:46.871Z,100393.97
2022-08-25T04:25:49.364Z,100311.59
2022-08-25T04:30:52.237Z,100363.00
2022-08-25T04:35:54.655Z,100348.78
2022-08-25T04:41:02.079Z,100392.97
2022-08-25T04:46:08.982Z,100384.06
2022-08-25T04:51:14.312Z,100391.59
2022-08-25T04:56:19.047Z,100389.41
2022-08-25T05:01:24.393Z,100358.25
2022-08-25T05:06:27.704Z,100359.63
2022-08-25T05:11:30.593Z,100383.69
2022-08-25T05:16:35.653Z,100343.16
2022-08-25T05:21:38.786Z,100353.03
2022-08-25T05:26:41.151Z,100326.38
2022-08-25T05:31:49.524Z,100328.69
2022-08-25T05:36:53.325Z,100335.94
2022-08-25T05:41:55.899Z,100332.94
2022-08-25T05:46:58.239Z,100343.88
2022-08-25T05:52:00.540Z,100333.00
2022-08-25T05:57:02.830Z,100328.84
2022-08-25T06:02:23.575Z,100363.81
2022-08-25T06:07:26.055Z,100313.56
2022-08-25T06:12:29.829Z,100352.22
2022-08-25T06:17:32.298Z,100330.56
2022-08-25T06:22:34.576Z,100342.22
2022-08-25T06:27:39.726Z,100367.69
2022-08-25T06:32:43.319Z,100362.47
2022-08-25T06:37:46.491Z,100295.63
2022-08-25T06:42:49.992Z,100354.66
2022-08-25T06:47:59.601Z,100353.56
2022-08-25T06:53:01.929Z,100319.50
2022-08-25T06:58:05.209Z,100307.25
2022-08-25T07:03:09.624Z,100275.84
2022-08-25T07:08:13.270Z,100318.50
2022-08-25T07:13:16.283Z,100283.94
2022-08-25T07:18:18.630Z,100282.47
2022-08-25T07:23:21.247Z,100324.09
2022-08-25T07:28:24.056Z,100299.38
2022-08-25T07:33:27.734Z,100307.25
2022-08-25T07:38:30.790Z,100282.28
2022-08-25T07:43:33.209Z,100263.81
2022-08-25T07:48:35.489Z,100291.53
2022-08-25T07:53:38.279Z,100315.97
2022-08-25T07:58:41.603Z,100290.06
2022-08-25T08:03:50.860Z,100301.13
2022-08-25T08:08:57.826Z,100267.38
2022-08-25T08:14:02.134Z,100273.34
2022-08-25T08:19:05.094Z,100281.03
2022-08-25T08:24:24.933Z,100261.72
2022-08-25T08:29:30.977Z,100263.09
2022-08-25T08:34:34.383Z,100232.63
2022-08-25T08:39:37.793Z,100270.41
2022-08-25T08:44:46.425Z,100274.84
2022-08-25T08:50:29.576Z,100272.66
2022-08-25T08:55:48.349Z,100223.56
2022-08-25T09:00:58.552Z,100254.25
2022-08-25T09:06:06.820Z,100254.28
2022-08-25T09:11:49.515Z,100251.81
2022-08-25T09:17:13.718Z,100248.66
2022-08-25T09:22:50.613Z,100206.28
2022-08-25T09:28:02.429Z,100240.81
2022-08-25T09:33:05.158Z,100234.16
2022-08-25T09:38:10.551Z,100239.31
2022-08-25T09:43:35.634Z,100229.19
2022-08-25T09:48:56.556Z,100224.88
2022-08-25T09:54:34.088Z,100178.75
2022-08-25T09:59:57.284Z,100193.56
2022-08-25T10:05:00.344Z,100222.28
2022-08-25T10:10:07.931Z,100151.25
2022-08-25T10:15:29.393Z,100201.22
2022-08-25T10:20:35.153Z,100167.22
2022-08-25T10:25:42.782Z,100185.00
2022-08-25T10:31:10.206Z,100196.41
2022-08-25T10:36:20.315Z,100182.97
2022-08-25T10:41:32.902Z,100187.00
2022-08-25T10:46:49.926Z,100166.19
2022-08-25T10:52:04.265Z,100168.78
2022-08-25T10:57:24.320Z,100174.19
2022-08-25T11:02:47.366Z,100135.13
2022-08-25T11:07:52.588Z,100143.63
2022-08-25T11:13:00.807Z,100096.41
2022-08-25T11:18:14.501Z,100042.75
2022-08-25T11:23:23.884Z,100108.19
2022-08-25T11:28:38.368Z,100142.25
2022-08-25T11:33:40.695Z,100074.66
2022-08-25T11:38:55.231Z,100134.81
2022-08-25T11:44:32.781Z,100109.59
2022-08-25T11:50:01.085Z,100103.44
2022-08-25T11:55:15.233Z,100120.44
2022-08-25T12:00:43.219Z,100100.91
2022-08-25T12:06:14.528Z,100109.41
2022-08-25T12:11:38.591Z,100112.81
2022-08-25T12:16:56.634Z,100104.28
2022-08-25T12:22:03.527Z,100098.19
2022-08-25T12:27:07.178Z,100012.19
2022-08-25T12:32:33.969Z,100088.19
2022-08-25T12:38:14.034Z,100047.38
2022-08-25T12:43:33.965Z,100085.69
2022-08-25T12:48:54.401Z,99979.38
2022-08-25T12:54:34.897Z,100078.72
2022-08-25T12:59:44.685Z,100058.06
2022-08-25T13:05:14.241Z,100056.47
2022-08-25T13:10:52.577Z,100057.38
2022-08-25T13:16:05.366Z,100057.22
2022-08-25T13:21:18.840Z,100028.13
2022-08-25T13:26:34.418Z,100041.66
2022-08-25T13:31:38.751Z,100041.91
2022-08-25T13:37:06.376Z,100031.34
2022-08-25T13:42:16.241Z,99996.19
2022-08-25T13:47:45.191Z,100029.91
2022-08-25T13:52:51.185Z,100027.91
2022-08-25T13:57:53.564Z,99984.63
2022-08-25T14:02:56.348Z,99960.03
2022-08-25T14:08:15.572Z,99882.78
2022-08-25T14:13:30.985Z,100015.34
2022-08-25T14:18:33.570Z,100002.16
2022-08-25T14:23:37.882Z,99997.78
2022-08-25T14:28:40.464Z,99995.19
2022-08-25T14:33:56.322Z,99985.94
2022-08-25T14:38:58.652Z,99927.63
2022-08-25T14:44:05.291Z,99985.69
2022-08-25T14:49:11.622Z,99944.25
2022-08-25T14:54:15.181Z,99976.03
2022-08-25T14:59:18.767Z,99928.88
2022-08-25T15:04:23.531Z,99979.63
2022-08-25T15:09:33.544Z,99929.31
2022-08-25T15:14:36.147Z,99983.38
2022-08-25T15:19:38.564Z,99988.66
2022-08-25T15:24:40.913Z,99964.47
2022-08-25T15:29:43.881Z,99957.41
2022-08-25T15:34:46.996Z,99757.63
2022-08-25T15:39:49.703Z,99945.44
2022-08-25T15:44:53.436Z,99933.78
2022-08-25T15:50:05.230Z,99923.38
2022-08-25T15:55:09.707Z,99938.28
2022-08-25T16:00:16.759Z,99973.72
2022-08-25T16:05:25.896Z,99934.41
2022-08-25T16:10:29.126Z,99924.91
2022-08-25T16:15:32.103Z,99982.56
2022-08-25T16:20:35.313Z,99975.78
2022-08-25T16:25:42.504Z,99980.41
2022-08-25T16:30:53.054Z,99966.13
2022-08-25T16:36:09.356Z,99951.78
2022-08-25T16:41:14.580Z,99912.03
2022-08-25T16:46:19.052Z,99954.09
2022-08-25T16:51:29.518Z,99881.91
2022-08-25T16:56:35.296Z,99990.59
2022-08-25T17:01:42.243Z,99917.09
2022-08-25T17:06:51.833Z,99950.06
2022-08-25T17:11:56.955Z,99973.34
2022-08-25T17:16:59.292Z,99958.50
2022-08-25T17:22:01.559Z,99956.41
2022-08-25T17:27:05.682Z,99942.44
2022-08-25T17:32:09.137Z,99972.22
2022-08-25T17:37:13.671Z,99943.53
2022-08-25T17:42:16.684Z,99954.72
2022-08-25T17:47:20.558Z,99981.84
2022-08-25T17:52:25.774Z,99996.09
2022-08-25T17:57:28.059Z,99985.75
2022-08-25T18:02:30.678Z,99988.63
2022-08-25T18:07:33.178Z,99955.47
2022-08-25T18:12:37.732Z,99965.56
2022-08-25T18:17:40.911Z,99894.03
2022-08-25T18:22:44.092Z,100001.78
2022-08-25T18:27:47.631Z,100003.91
2022-08-25T18:32:50.547Z,99910.06
2022-08-25T18:38:16.545Z,100002.97
2022-08-25T18:43:19.560Z,99972.72
2022-08-25T18:48:26.733Z,99982.94
2022-08-25T18:53:37.295Z,99964.19
2022-08-25T18:58:52.310Z,99860.47
2022-08-25T19:03:54.654Z,99979.44
2022-08-25T19:08:57.042Z,99878.69
2022-08-25T19:14:00.029Z,99948.31
2022-08-25T19:19:06.916Z,99899.41
2022-08-25T19:24:13.166Z,99982.97
2022-08-25T19:29:17.580Z,99975.78
2022-08-25T19:34:30.342Z,99963.00
2022-08-25T19:39:34.642Z,99951.09
2022-08-25T19:44:36.926Z,99949.69
2022-08-25T19:49:39.201Z,99967.88
2022-08-25T19:54:46.018Z,99983.88
2022-08-25T19:59:48.669Z,99982.38
2022-08-25T20:04:53.782Z,99956.72
2022-08-25T20:09:59.867Z,99890.97
2022-08-25T20:15:03.047Z,99948.25
2022-08-25T20:20:09.404Z,99955.25
2022-08-25T20:25:20.377Z,99952.78
2022-08-25T20:30:29.240Z,99942.44
2022-08-25T20:35:31.535Z,99940.09
2022-08-25T20:40:37.087Z,99964.06
2022-08-25T20:45:39.872Z,99904.63
2022-08-25T20:50:42.241Z,99943.78
2022-08-25T20:55:44.586Z,99924.91
2022-08-25T21:00:47.379Z,99875.75
2022-08-25T21:05:53.995Z,99948.84
2022-08-25T21:10:56.759Z,99941.38
2022-08-25T21:16:02.286Z,99960.56
2022-08-25T21:21:14.833Z,99886.03
2022-08-25T21:26:25.345Z,99938.69
2022-08-25T21:31:29.211Z,99969.41
2022-08-25T21:36:32.043Z,99966.16
2022-08-25T21:41:36.867Z,99900.41
2022-08-25T21:46:39.702Z,99989.94
2022-08-25T21:51:44.475Z,99954.50
2022-08-25T21:56:51.953Z,99999.03
2022-08-25T22:02:06.211Z,99997.19
2022-08-25T22:07:09.264Z,99950.94
2022-08-25T22:12:11.569Z,99972.94
2022-08-25T22:17:16.992Z,99934.66
2022-08-25T22:22:24.035Z,99966.97
2022-08-25T22:27:26.413Z,99929.72
2022-08-25T22:32:28.719Z,99913.28
2022-08-25T22:37:31.261Z,99952.63
2022-08-25T22:42:36.443Z,99947.66
2022-08-25T22:47:39.110Z,99989.59
2022-08-25T22:52:43.678Z,99916.91
2022-08-25T22:57:48.084Z,99940.47
2022-08-25T23:02:53.381Z,99918.13
2022-08-25T23:07:55.890Z,99970.38
2022-08-25T23:12:58.067Z,99927.06
2022-08-25T23:18:00.360Z,99953.25
2022-08-25T23:23:02.983Z,99883.22
2022-08-25T23:28:05.418Z,99973.00
2022-08-25T23:33:27.114Z,99947.69
2022-08-25T23:38:29.407Z,99936.59
2022-08-25T23:43:31.635Z,99960.09
2022-08-25T23:48:34.363Z,99983.78
2022-08-25T23:53:37.099Z,99936.88
2022-08-25T23:58:39.359Z,99943.94
